createdAt,value
2022-07-25T00:00:12.655Z,53.53
2022-07-25T00:09:46.695Z,55.13
2022-07-25T00:19:19.562Z,54.69
2022-07-25T00:28:54.168Z,54.93
2022-07-25T00:38:28.349Z,54.12
2022-07-25T00:48:02.624Z,55.94
2022-07-25T00:57:37.194Z,55.91
2022-07-25T01:07:13.147Z,56.32
2022-07-25T01:16:45.374Z,56.33
2022-07-25T01:26:19.435Z,57.42
2022-07-25T01:35:53.735Z,57.69
2022-07-25T01:45:27.695Z,58.34
2022-07-25T01:55:02.143Z,59.48
2022-07-25T02:04:36.643Z,58.39
2022-07-25T02:14:11.182Z,59.13
2022-07-25T02:23:45.077Z,60.50
2022-07-25T02:33:21.071Z,60.80
2022-07-25T02:42:53.567Z,62.14
2022-07-25T02:52:29.280Z,60.31
2022-07-25T03:02:01.703Z,61.54
2022-07-25T03:11:35.904Z,61.32
2022-07-25T03:21:11.999Z,61.95
2022-07-25T03:30:46.394Z,62.43
2022-07-25T03:40:19.074Z,63.09
2022-07-25T03:49:53.741Z,63.58
2022-07-25T03:59:29.749Z,63.67
2022-07-25T04:09:03.966Z,64.40
2022-07-25T04:18:36.926Z,64.29
2022-07-25T04:28:11.269Z,64.57
2022-07-25T04:37:45.691Z,65.27
2022-07-25T04:47:20.191Z,65.53
2022-07-25T04:56:54.728Z,65.92
2022-07-25T05:06:29.555Z,66.59
2022-07-25T05:16:03.738Z,66.96
2022-07-25T05:25:37.972Z,66.81
2022-07-25T05:26:40.541Z,67.50
2022-07-25T05:36:14.516Z,68.21
2022-07-25T05:45:49.188Z,67.74
2022-07-25T05:55:24.041Z,66.91
2022-07-25T06:04:59.113Z,65.82
2022-07-25T06:14:33.930Z,64.87
2022-07-25T06:15:36.451Z,65.42
2022-07-25T06:25:10.702Z,64.90
2022-07-25T06:34:45.156Z,63.37
2022-07-25T06:44:22.028Z,64.00
2022-07-25T06:45:25.353Z,63.83
2022-07-25T06:46:28.542Z,63.23
2022-07-25T06:47:35.595Z,62.12
2022-07-25T06:48:35.058Z,61.64
2022-07-25T06:49:37.375Z,61.94
2022-07-25T06:50:39.896Z,60.90
2022-07-25T06:51:43.995Z,61.87
2022-07-25T06:52:46.528Z,61.87
2022-07-25T06:53:49.060Z,60.99
2022-07-25T06:54:53.064Z,60.51
2022-07-25T07:04:25.135Z,61.93
2022-07-25T07:05:27.557Z,61.68
2022-07-25T07:06:30.029Z,60.33
2022-07-25T07:07:32.547Z,60.05
2022-07-25T07:08:36.076Z,59.76
2022-07-25T07:09:39.419Z,60.02
2022-07-25T07:10:41.804Z,58.58
2022-07-25T07:11:44.294Z,58.71
2022-07-25T07:12:48.391Z,57.74
2022-07-25T07:13:52.387Z,58.95
2022-07-25T07:14:54.724Z,58.14
2022-07-25T07:15:58.275Z,57.36
2022-07-25T07:17:00.604Z,57.02
2022-07-25T07:18:03.055Z,55.59
2022-07-25T07:19:08.458Z,55.25
2022-07-25T07:20:10.486Z,55.62
2022-07-25T07:21:16.184Z,56.73
2022-07-25T07:31:49.215Z,54.14
2022-07-25T07:32:58.324Z,53.27
2022-07-25T07:34:02.252Z,53.23
2022-07-25T07:35:04.573Z,53.41
2022-07-25T07:36:07.902Z,52.49
2022-07-25T07:37:11.878Z,51.17
2022-07-25T07:38:14.207Z,51.29
2022-07-25T07:39:16.724Z,51.41
2022-07-25T07:40:19.240Z,52.11
2022-07-25T07:41:21.733Z,51.96
2022-07-25T07:42:24.204Z,51.63
2022-07-25T07:43:30.151Z,51.04
2022-07-25T07:44:30.056Z,50.84
2022-07-25T07:45:32.626Z,51.03
2022-07-25T07:46:35.177Z,50.90
2022-07-25T07:47:37.570Z,50.61
2022-07-25T07:48:41.625Z,51.10
2022-07-25T07:49:47.134Z,50.77
2022-07-25T07:50:47.970Z,50.69
2022-07-25T07:51:50.326Z,49.93
2022-07-25T07:52:52.803Z,50.19
2022-07-25T07:53:55.348Z,49.41
2022-07-25T07:54:59.477Z,49.94
2022-07-25T07:56:01.284Z,49.77
2022-07-25T07:57:03.798Z,49.79
2022-07-25T07:58:06.275Z,49.84
2022-07-25T07:59:12.564Z,50.14
2022-07-25T08:00:16.615Z,49.57
2022-07-25T08:01:17.338Z,49.94
2022-07-25T08:02:20.770Z,50.19
2022-07-25T08:03:24.804Z,48.79
2022-07-25T08:04:27.124Z,49.23
2022-07-25T08:05:29.575Z,49.66
2022-07-25T08:06:33.055Z,49.18
2022-07-25T08:07:35.612Z,48.78
2022-07-25T08:08:39.817Z,49.13
2022-07-25T08:09:42.151Z,49.08
2022-07-25T08:10:46.215Z,48.46
2022-07-25T08:11:51.321Z,48.16
2022-07-25T08:12:53.811Z,47.83
2022-07-25T08:13:56.242Z,48.74
2022-07-25T08:15:01.382Z,47.88
2022-07-25T08:24:32.098Z,47.73
2022-07-25T08:25:34.618Z,48.68
2022-07-25T08:26:37.229Z,47.79
2022-07-25T08:27:39.702Z,46.06
2022-07-25T08:28:43.825Z,47.78
2022-07-25T08:29:46.358Z,46.57
2022-07-25T08:30:50.470Z,46.49
2022-07-25T08:31:52.886Z,45.82
2022-07-25T08:32:56.872Z,45.91
2022-07-25T08:33:59.220Z,45.72
2022-07-25T08:35:05.961Z,46.49
2022-07-25T08:36:05.746Z,46.96
2022-07-25T08:37:08.199Z,46.02
2022-07-25T08:38:10.725Z,46.65
2022-07-25T08:39:14.781Z,45.61
2022-07-25T08:40:18.872Z,45.58
2022-07-25T08:41:24.173Z,44.93
2022-07-25T08:42:26.260Z,45.05
2022-07-25T08:43:29.763Z,44.60
2022-07-25T08:44:32.175Z,44.86
2022-07-25T08:45:34.664Z,45.22
2022-07-25T08:46:38.178Z,45.78
2022-07-25T08:47:42.178Z,44.91
2022-07-25T08:48:45.776Z,44.83
2022-07-25T08:49:51.799Z,45.25
2022-07-25T08:50:53.952Z,44.72
2022-07-25T08:51:57.448Z,43.05
2022-07-25T08:53:34.752Z,43.28
2022-07-25T08:54:03.441Z,43.53
2022-07-25T08:55:07.257Z,43.25
2022-07-25T08:56:14.712Z,42.83
2022-07-25T08:57:13.831Z,42.11
2022-07-25T08:58:16.235Z,42.30
2022-07-25T08:59:21.276Z,42.74
2022-07-25T09:00:25.187Z,41.83
2022-07-25T09:01:32.954Z,42.71
2022-07-25T09:02:33.277Z,41.76
2022-07-25T09:03:35.592Z,42.93
2022-07-25T09:04:38.092Z,42.12
2022-07-25T09:05:40.601Z,41.97
2022-07-25T09:06:43.077Z,41.42
2022-07-25T09:07:45.668Z,42.20
2022-07-25T09:08:49.770Z,40.80
2022-07-25T09:09:53.759Z,40.39
2022-07-25T09:10:57.739Z,40.67
2022-07-25T09:12:00.120Z,40.60
2022-07-25T09:13:04.164Z,40.02
2022-07-25T09:14:07.289Z,40.03
2022-07-25T09:15:09.143Z,39.81
2022-07-25T09:16:11.690Z,39.87
2022-07-25T09:17:21.998Z,39.16
2022-07-25T09:18:18.234Z,39.08
2022-07-25T09:19:20.621Z,40.08
2022-07-25T09:20:23.128Z,40.48
2022-07-25T09:21:25.753Z,39.43
2022-07-25T09:22:28.279Z,38.51
2022-07-25T09:23:32.553Z,39.66
2022-07-25T09:24:35.097Z,41.34
2022-07-25T09:25:39.160Z,40.00
2022-07-25T09:26:41.539Z,40.33
2022-07-25T09:27:45.608Z,40.14
2022-07-25T09:28:49.197Z,40.28
2022-07-25T09:38:19.666Z,38.99
2022-07-25T09:39:23.373Z,38.58
2022-07-25T09:40:25.761Z,38.81
2022-07-25T09:41:28.233Z,38.63
2022-07-25T09:42:30.714Z,39.15
2022-07-25T09:43:33.245Z,39.13
2022-07-25T09:44:35.826Z,39.59
2022-07-25T09:45:42.172Z,39.82
2022-07-25T09:46:48.342Z,39.12
2022-07-25T09:47:52.147Z,40.35
2022-07-25T09:48:54.520Z,38.89
2022-07-25T09:49:57.883Z,38.69
2022-07-25T09:51:06.379Z,39.17
2022-07-25T09:52:08.641Z,38.65
2022-07-25T09:53:18.533Z,38.30
2022-07-25T09:54:22.415Z,38.98
2022-07-25T09:55:24.975Z,38.65
2022-07-25T09:56:27.419Z,38.63
2022-07-25T09:57:31.648Z,38.17
2022-07-25T09:58:33.891Z,37.17
2022-07-25T09:59:38.118Z,37.87
2022-07-25T10:00:43.326Z,38.64
2022-07-25T10:10:12.565Z,37.85
2022-07-25T10:11:15.021Z,37.96
2022-07-25T10:12:19.252Z,37.28
2022-07-25T10:13:22.592Z,36.66
2022-07-25T10:14:25.057Z,36.35
2022-07-25T10:15:27.581Z,37.61
2022-07-25T10:16:31.812Z,36.55
2022-07-25T10:17:35.722Z,35.02
2022-07-25T10:18:38.122Z,35.97
2022-07-25T10:19:40.562Z,36.69
2022-07-25T10:20:44.733Z,36.54
2022-07-25T10:21:48.734Z,37.54
2022-07-25T10:22:57.241Z,34.84
2022-07-25T10:23:55.081Z,36.23
2022-07-25T10:24:59.177Z,35.31
2022-07-25T10:26:01.532Z,35.63
2022-07-25T10:27:04.042Z,35.11
2022-07-25T10:28:06.616Z,32.49
2022-07-25T10:29:09.176Z,33.23
2022-07-25T10:30:11.765Z,32.82
2022-07-25T10:31:15.912Z,32.35
2022-07-25T10:32:19.960Z,30.99
2022-07-25T10:33:22.339Z,30.20
2022-07-25T10:34:26.436Z,30.51
2022-07-25T10:35:31.550Z,30.58
2022-07-25T10:36:33.767Z,30.55
2022-07-25T10:37:37.857Z,29.90
2022-07-25T10:38:41.838Z,30.70
2022-07-25T10:39:44.207Z,30.65
2022-07-25T10:40:48.300Z,29.94
2022-07-25T10:41:50.692Z,30.02
2022-07-25T10:42:53.205Z,31.11
2022-07-25T10:43:55.743Z,30.18
2022-07-25T10:44:59.901Z,29.98
2022-07-25T10:46:03.970Z,29.49
2022-07-25T10:47:06.252Z,31.10
2022-07-25T10:48:08.743Z,29.71
2022-07-25T10:49:11.683Z,29.10
2022-07-25T10:50:40.132Z,29.52
2022-07-25T10:51:19.283Z,29.18
2022-07-25T10:52:21.686Z,29.72
2022-07-25T10:53:24.226Z,30.57
2022-07-25T10:54:26.741Z,29.50
2022-07-25T10:55:29.222Z,36.07
2022-07-25T10:56:33.321Z,31.14
2022-07-25T10:57:45.309Z,29.63
2022-07-25T10:58:39.790Z,31.77
2022-07-25T10:59:43.917Z,29.06
2022-07-25T11:00:47.899Z,28.96
2022-07-25T11:01:50.350Z,29.14
2022-07-25T11:02:52.786Z,29.67
2022-07-25T11:03:56.857Z,28.54
2022-07-25T11:04:59.232Z,29.43
2022-07-25T11:06:03.398Z,29.78
2022-07-25T11:07:07.392Z,30.33
2022-07-25T11:08:21.544Z,31.21
2022-07-25T11:09:18.165Z,28.99
2022-07-25T11:10:17.846Z,28.94
2022-07-25T11:11:21.910Z,28.39
2022-07-25T11:12:25.879Z,28.91
2022-07-25T11:13:28.392Z,28.97
2022-07-25T11:14:32.459Z,29.21
2022-07-25T11:15:34.849Z,32.02
2022-07-25T11:16:38.912Z,29.42
2022-07-25T11:17:41.301Z,28.96
2022-07-25T11:18:43.779Z,31.02
2022-07-25T11:19:46.340Z,31.17
2022-07-25T11:20:48.839Z,28.54
2022-07-25T11:21:52.917Z,28.66
2022-07-25T11:22:55.254Z,29.54
2022-07-25T11:23:57.790Z,29.29
2022-07-25T11:25:00.317Z,28.68
2022-07-25T11:26:02.819Z,28.91
2022-07-25T11:27:09.820Z,29.35
2022-07-25T11:28:07.834Z,29.08
2022-07-25T11:29:10.393Z,28.92
2022-07-25T11:30:12.793Z,30.39
2022-07-25T11:31:15.369Z,29.36
2022-07-25T11:32:18.890Z,29.18
2022-07-25T11:33:21.209Z,29.62
2022-07-25T11:34:25.455Z,30.32
2022-07-25T11:35:27.801Z,29.67
2022-07-25T11:36:31.299Z,29.63
2022-07-25T11:37:33.593Z,29.35
2022-07-25T11:38:36.119Z,29.86
2022-07-25T11:39:38.691Z,29.83
2022-07-25T11:40:41.251Z,30.38
2022-07-25T11:41:45.359Z,29.12
2022-07-25T11:42:47.812Z,29.18
2022-07-25T11:43:52.025Z,29.09
2022-07-25T11:44:54.483Z,28.66
2022-07-25T11:45:58.152Z,28.96
2022-07-25T11:47:00.528Z,28.82
2022-07-25T11:48:03.067Z,28.49
2022-07-25T11:49:06.171Z,28.86
2022-07-25T11:50:08.187Z,28.98
2022-07-25T11:51:12.622Z,29.26
2022-07-25T11:52:14.823Z,28.98
2022-07-25T11:53:17.271Z,29.07
2022-07-25T11:54:19.789Z,28.66
2022-07-25T11:55:22.317Z,29.12
2022-07-25T11:56:41.685Z,29.20
2022-07-25T11:57:27.459Z,28.73
2022-07-25T11:58:29.997Z,28.16
2022-07-25T11:59:32.538Z,28.52
2022-07-25T12:00:35.114Z,28.45
2022-07-25T12:01:39.179Z,28.64
2022-07-25T12:02:41.696Z,28.61
2022-07-25T12:03:44.206Z,29.60
2022-07-25T12:04:46.657Z,29.29
2022-07-25T12:05:50.797Z,28.87
2022-07-25T12:06:54.766Z,28.45
2022-07-25T12:07:57.119Z,28.30
2022-07-25T12:08:59.716Z,28.55
2022-07-25T12:10:02.271Z,28.64
2022-07-25T12:11:04.814Z,28.06
2022-07-25T12:12:07.409Z,27.90
2022-07-25T12:13:10.851Z,28.31
2022-07-25T12:14:13.281Z,28.73
2022-07-25T12:15:15.774Z,28.33
2022-07-25T12:16:18.380Z,28.33
2022-07-25T12:17:22.401Z,28.18
2022-07-25T12:18:24.837Z,28.67
2022-07-25T12:19:27.426Z,28.87
2022-07-25T12:20:29.955Z,28.61
2022-07-25T12:21:32.433Z,29.87
2022-07-25T12:22:36.515Z,28.77
2022-07-25T12:23:38.979Z,28.88
2022-07-25T12:24:43.114Z,28.60
2022-07-25T12:25:47.172Z,28.76
2022-07-25T12:26:49.541Z,29.04
2022-07-25T12:36:23.982Z,29.53
2022-07-25T12:37:26.293Z,29.28
2022-07-25T12:38:28.785Z,29.12
2022-07-25T12:39:31.316Z,29.88
2022-07-25T12:40:33.827Z,30.60
2022-07-25T12:41:36.323Z,31.11
2022-07-25T12:42:40.462Z,31.42
2022-07-25T12:43:44.401Z,32.47
2022-07-25T12:44:48.369Z,32.85
2022-07-25T12:45:50.800Z,32.72
2022-07-25T12:46:53.260Z,33.00
2022-07-25T12:47:55.726Z,32.78
2022-07-25T12:48:58.281Z,32.43
2022-07-25T12:50:02.523Z,32.00
2022-07-25T12:51:06.401Z,31.53
2022-07-25T12:52:08.849Z,31.92
2022-07-25T12:53:11.341Z,30.98
2022-07-25T12:54:16.288Z,33.02
2022-07-25T12:55:16.476Z,30.17
2022-07-25T12:56:19.069Z,30.42
2022-07-25T12:57:21.582Z,30.39
2022-07-25T12:58:25.684Z,29.63
2022-07-25T12:59:28.091Z,30.33
2022-07-25T13:00:30.517Z,30.58
2022-07-25T13:01:34.711Z,32.03
2022-07-25T13:02:37.100Z,30.96
2022-07-25T13:03:41.077Z,32.01
2022-07-25T13:04:43.428Z,31.73
2022-07-25T13:05:45.895Z,31.73
2022-07-25T13:06:50.026Z,32.59
2022-07-25T13:07:52.370Z,32.63
2022-07-25T13:08:54.835Z,32.68
2022-07-25T13:09:57.359Z,32.63
2022-07-25T13:10:59.875Z,33.98
2022-07-25T13:12:02.433Z,33.83
2022-07-25T13:13:04.887Z,32.81
2022-07-25T13:14:07.417Z,32.14
2022-07-25T13:15:11.637Z,32.40
2022-07-25T13:16:15.749Z,33.71
2022-07-25T13:17:22.436Z,32.49
2022-07-25T13:18:22.069Z,31.60
2022-07-25T13:19:24.576Z,31.63
2022-07-25T13:20:27.094Z,30.22
2022-07-25T13:21:31.224Z,31.74
2022-07-25T13:22:33.678Z,29.84
2022-07-25T13:23:36.227Z,29.43
2022-07-25T13:24:38.713Z,29.68
2022-07-25T13:25:41.221Z,31.25
2022-07-25T13:26:43.802Z,33.33
2022-07-25T13:27:46.276Z,30.56
2022-07-25T13:28:48.833Z,30.63
2022-07-25T13:29:52.976Z,30.50
2022-07-25T13:30:55.359Z,29.41
2022-07-25T13:31:58.014Z,34.07
2022-07-25T13:33:00.406Z,30.41
2022-07-25T13:34:02.953Z,28.82
2022-07-25T13:35:05.456Z,31.04
2022-07-25T13:36:09.658Z,31.37
2022-07-25T13:37:12.050Z,28.80
2022-07-25T13:38:14.589Z,30.21
2022-07-25T13:39:18.717Z,29.62
2022-07-25T13:40:21.024Z,29.03
2022-07-25T13:41:23.468Z,29.50
2022-07-25T13:42:27.586Z,30.03
2022-07-25T13:43:29.955Z,30.21
2022-07-25T13:44:32.462Z,30.22
2022-07-25T13:45:36.604Z,30.21
2022-07-25T13:46:40.538Z,30.71
2022-07-25T13:47:44.510Z,31.41
2022-07-25T13:48:48.519Z,30.77
2022-07-25T13:49:50.879Z,30.96
2022-07-25T13:50:53.389Z,31.80
2022-07-25T13:51:57.485Z,31.38
2022-07-25T13:52:59.910Z,31.62
2022-07-25T13:54:02.402Z,31.81
2022-07-25T13:55:04.871Z,31.44
2022-07-25T13:56:07.403Z,31.69
2022-07-25T13:57:11.566Z,32.29
2022-07-25T13:58:13.886Z,31.27
2022-07-25T13:59:21.089Z,32.52
2022-07-25T14:00:20.639Z,30.81
2022-07-25T14:01:23.114Z,31.19
2022-07-25T14:02:29.494Z,30.11
2022-07-25T14:03:31.660Z,29.63
2022-07-25T14:04:34.146Z,30.52
2022-07-25T14:05:36.643Z,32.21
2022-07-25T14:06:39.154Z,32.84
2022-07-25T14:07:47.215Z,33.10
2022-07-25T14:08:49.360Z,32.72
2022-07-25T14:09:51.810Z,33.05
2022-07-25T14:10:54.443Z,33.54
2022-07-25T14:11:57.016Z,34.33
2022-07-25T14:13:02.178Z,32.82
2022-07-25T14:14:04.388Z,32.96
2022-07-25T14:15:06.917Z,33.24
2022-07-25T14:16:09.477Z,33.74
2022-07-25T14:17:13.778Z,33.71
2022-07-25T14:18:16.117Z,32.91
2022-07-25T14:19:18.600Z,31.49
2022-07-25T14:20:22.722Z,30.28
2022-07-25T14:21:25.371Z,30.75
2022-07-25T14:22:29.241Z,30.95
2022-07-25T14:23:31.599Z,30.33
2022-07-25T14:24:35.144Z,29.96
2022-07-25T14:25:37.607Z,29.57
2022-07-25T14:26:40.136Z,29.67
2022-07-25T14:27:42.633Z,29.32
2022-07-25T14:28:45.157Z,29.28
2022-07-25T14:29:48.710Z,28.69
2022-07-25T14:30:52.747Z,28.37
2022-07-25T14:31:55.113Z,28.10
2022-07-25T14:32:57.527Z,28.57
2022-07-25T14:34:00.097Z,28.16
2022-07-25T14:35:03.535Z,29.15
2022-07-25T14:36:05.834Z,29.23
2022-07-25T14:37:10.916Z,28.94
2022-07-25T14:38:15.235Z,29.18
2022-07-25T14:39:17.085Z,28.97
2022-07-25T14:40:20.601Z,29.12
2022-07-25T14:41:23.016Z,29.08
2022-07-25T14:42:30.631Z,28.55
2022-07-25T14:43:33.055Z,28.96
2022-07-25T14:44:35.515Z,28.82
2022-07-25T14:45:38.018Z,28.70
2022-07-25T14:46:40.625Z,29.04
2022-07-25T14:47:44.606Z,29.09
2022-07-25T14:48:48.652Z,29.40
2022-07-25T14:49:50.965Z,29.73
2022-07-25T14:50:54.398Z,29.97
2022-07-25T14:51:56.743Z,29.68
2022-07-25T14:52:59.218Z,29.89
2022-07-25T14:54:01.742Z,30.06
2022-07-25T14:55:05.218Z,30.17
2022-07-25T14:56:07.590Z,30.29
2022-07-25T14:57:10.067Z,30.18
2022-07-25T14:58:14.167Z,30.34
2022-07-25T14:59:19.131Z,30.69
2022-07-25T15:00:23.740Z,31.10
2022-07-25T15:01:24.012Z,30.76
2022-07-25T15:02:26.363Z,31.24
2022-07-25T15:03:28.825Z,31.83
2022-07-25T15:04:31.553Z,30.68
2022-07-25T15:05:33.991Z,31.51
2022-07-25T15:06:38.112Z,31.92
2022-07-25T15:07:40.540Z,30.83
2022-07-25T15:08:44.652Z,30.21
2022-07-25T15:09:47.053Z,30.41
2022-07-25T15:10:49.655Z,29.74
2022-07-25T15:11:52.148Z,29.57
2022-07-25T15:13:13.891Z,28.18
2022-07-25T15:13:57.172Z,28.55
2022-07-25T15:15:01.298Z,28.10
2022-07-25T15:16:05.386Z,28.08
2022-07-25T15:17:07.603Z,27.62
2022-07-25T15:18:13.950Z,27.74
2022-07-25T15:19:25.708Z,27.99
2022-07-25T15:20:18.123Z,28.24
2022-07-25T15:21:22.050Z,28.89
2022-07-25T15:22:24.473Z,29.25
2022-07-25T15:23:30.305Z,28.39
2022-07-25T15:24:44.389Z,26.79
2022-07-25T15:26:00.410Z,26.87
2022-07-25T15:26:37.217Z,26.91
2022-07-25T15:27:39.626Z,27.02
2022-07-25T15:28:43.774Z,26.83
2022-07-25T15:29:47.871Z,26.99
2022-07-25T15:30:50.287Z,26.68
2022-07-25T15:31:54.443Z,26.43
2022-07-25T15:32:56.719Z,27.34
2022-07-25T15:33:59.212Z,26.57
2022-07-25T15:35:03.345Z,26.95
2022-07-25T15:36:05.748Z,27.15
2022-07-25T15:37:11.080Z,27.13
2022-07-25T15:38:14.927Z,27.27
2022-07-25T15:39:18.883Z,27.26
2022-07-25T15:40:21.296Z,27.73
2022-07-25T15:41:23.764Z,29.12
2022-07-25T15:42:29.146Z,27.73
2022-07-25T15:43:28.799Z,28.69
2022-07-25T15:44:32.958Z,28.77
2022-07-25T15:45:35.231Z,28.08
2022-07-25T15:46:37.797Z,28.15
2022-07-25T15:47:40.181Z,27.97
2022-07-25T15:48:44.410Z,28.03
2022-07-25T15:49:46.652Z,28.16
2022-07-25T15:50:49.184Z,28.11
2022-07-25T15:51:54.319Z,28.07
2022-07-25T15:52:58.414Z,28.36
2022-07-25T15:54:00.809Z,27.70
2022-07-25T15:55:03.441Z,28.11
2022-07-25T15:56:06.012Z,28.19
2022-07-25T15:57:08.517Z,28.15
2022-07-25T15:58:12.598Z,28.09
2022-07-25T15:59:14.998Z,28.28
2022-07-25T16:08:46.238Z,29.38
2022-07-25T16:09:50.387Z,30.33
2022-07-25T16:10:53.890Z,29.22
2022-07-25T16:12:01.985Z,28.78
2022-07-25T16:13:05.723Z,28.31
2022-07-25T16:14:08.022Z,28.54
2022-07-25T16:15:10.505Z,28.69
2022-07-25T16:16:14.676Z,28.96
2022-07-25T16:17:18.543Z,29.17
2022-07-25T16:18:22.515Z,30.03
2022-07-25T16:19:26.531Z,29.53
2022-07-25T16:20:28.898Z,29.60
2022-07-25T16:21:31.336Z,29.75
2022-07-25T16:22:35.471Z,29.77
2022-07-25T16:23:40.610Z,30.44
2022-07-25T16:24:42.457Z,30.13
2022-07-25T16:25:44.826Z,30.24
2022-07-25T16:26:48.906Z,29.74
2022-07-25T16:27:55.593Z,30.06
2022-07-25T16:28:59.340Z,30.21
2022-07-25T16:30:03.322Z,30.36
2022-07-25T16:31:07.476Z,30.14
2022-07-25T16:32:09.693Z,30.84
2022-07-25T16:33:13.732Z,30.39
2022-07-25T16:34:17.718Z,30.34
2022-07-25T16:35:20.136Z,31.29
2022-07-25T16:36:24.210Z,30.99
2022-07-25T16:37:26.585Z,30.75
2022-07-25T16:38:30.716Z,30.61
2022-07-25T16:39:38.655Z,30.92
2022-07-25T16:40:40.868Z,30.66
2022-07-25T16:41:43.281Z,30.56
2022-07-25T16:42:47.371Z,31.22
2022-07-25T16:43:49.779Z,30.62
2022-07-25T16:44:52.169Z,30.43
2022-07-25T16:45:54.702Z,29.95
2022-07-25T16:46:57.405Z,29.92
2022-07-25T16:47:59.707Z,29.47
2022-07-25T16:49:08.220Z,29.30
2022-07-25T16:50:10.037Z,30.16
2022-07-25T16:51:12.603Z,28.79
2022-07-25T16:52:16.718Z,28.77
2022-07-25T16:53:19.070Z,30.30
2022-07-25T16:54:21.530Z,30.52
2022-07-25T16:55:25.621Z,30.11
2022-07-25T16:56:27.993Z,31.07
2022-07-25T16:57:30.471Z,30.40
2022-07-25T16:58:32.941Z,31.22
2022-07-25T16:59:35.463Z,30.79
2022-07-25T17:00:37.972Z,31.76
2022-07-25T17:01:42.149Z,31.23
2022-07-25T17:02:46.149Z,30.92
2022-07-25T17:03:50.116Z,31.12
2022-07-25T17:04:52.749Z,30.69
2022-07-25T17:05:56.837Z,31.80
2022-07-25T17:06:59.371Z,30.99
2022-07-25T17:08:03.359Z,31.18
2022-07-25T17:09:07.639Z,30.29
2022-07-25T17:18:35.732Z,30.12
2022-07-25T17:19:39.824Z,30.03
2022-07-25T17:20:43.752Z,30.06
2022-07-25T17:21:47.107Z,30.16
2022-07-25T17:22:49.534Z,30.33
2022-07-25T17:23:51.945Z,30.36
2022-07-25T17:24:56.003Z,30.36
2022-07-25T17:25:59.965Z,30.31
2022-07-25T17:27:03.908Z,30.97
2022-07-25T17:28:07.843Z,30.66
2022-07-25T17:29:15.717Z,31.45
2022-07-25T17:30:17.866Z,31.54
2022-07-25T17:31:22.070Z,32.49
2022-07-25T17:32:29.340Z,32.56
2022-07-25T17:33:27.935Z,32.88
2022-07-25T17:34:30.356Z,32.56
2022-07-25T17:35:43.432Z,32.44
2022-07-25T17:36:45.494Z,33.15
2022-07-25T17:37:53.613Z,32.87
2022-07-25T17:38:55.721Z,32.05
2022-07-25T17:39:59.819Z,31.78
2022-07-25T17:41:02.184Z,31.71
2022-07-25T17:42:04.564Z,32.27
2022-07-25T17:43:07.045Z,33.31
2022-07-25T17:44:11.888Z,32.77
2022-07-25T17:45:11.967Z,33.20
2022-07-25T17:46:14.535Z,33.59
2022-07-25T17:47:16.976Z,33.79
2022-07-25T17:48:19.454Z,33.62
2022-07-25T17:49:27.560Z,33.71
2022-07-25T17:50:31.493Z,33.76
2022-07-25T17:51:36.981Z,33.95
2022-07-25T17:52:40.742Z,34.17
2022-07-25T17:53:44.613Z,34.26
2022-07-25T17:54:47.089Z,34.51
2022-07-25T17:55:50.560Z,34.53
2022-07-25T17:56:52.961Z,34.54
2022-07-25T17:57:55.480Z,34.57
2022-07-25T17:58:57.953Z,34.77
2022-07-25T18:00:00.769Z,34.85
2022-07-25T18:01:07.037Z,34.46
2022-07-25T18:10:35.131Z,35.08
2022-07-25T18:11:37.592Z,34.95
2022-07-25T18:12:40.164Z,35.57
2022-07-25T18:13:44.281Z,35.34
2022-07-25T18:14:46.576Z,35.47
2022-07-25T18:15:49.111Z,35.73
2022-07-25T18:16:51.548Z,35.87
2022-07-25T18:17:55.643Z,35.95
2022-07-25T18:18:59.602Z,36.00
2022-07-25T18:20:01.988Z,36.52
2022-07-25T18:21:06.241Z,36.77
2022-07-25T18:22:08.422Z,36.63
2022-07-25T18:23:10.794Z,36.60
2022-07-25T18:24:13.296Z,36.28
2022-07-25T18:25:19.527Z,36.14
2022-07-25T18:26:21.792Z,36.37
2022-07-25T18:27:25.881Z,36.22
2022-07-25T18:28:28.199Z,36.47
2022-07-25T18:29:30.747Z,36.22
2022-07-25T18:30:36.926Z,36.57
2022-07-25T18:31:39.345Z,36.61
2022-07-25T18:32:41.673Z,37.42
2022-07-25T18:33:44.171Z,36.56
2022-07-25T18:34:46.698Z,36.75
2022-07-25T18:35:50.788Z,36.65
2022-07-25T18:36:54.233Z,36.76
2022-07-25T18:37:56.706Z,37.87
2022-07-25T18:39:03.307Z,37.29
2022-07-25T18:40:07.065Z,37.67
2022-07-25T18:41:30.670Z,37.17
2022-07-25T18:42:17.132Z,37.62
2022-07-25T18:43:25.261Z,37.49
2022-07-25T18:44:27.364Z,37.50
2022-07-25T18:45:29.787Z,37.70
2022-07-25T18:46:33.462Z,37.78
2022-07-25T18:47:37.394Z,37.80
2022-07-25T18:48:39.828Z,38.08
2022-07-25T18:49:42.311Z,38.39
2022-07-25T18:50:44.820Z,38.45
2022-07-25T18:51:48.872Z,38.36
2022-07-25T18:52:52.860Z,38.54
2022-07-25T18:53:55.249Z,38.89
2022-07-25T18:54:57.655Z,38.71
2022-07-25T18:56:00.119Z,38.98
2022-07-25T18:57:02.561Z,39.22
2022-07-25T18:58:05.104Z,39.31
2022-07-25T18:59:11.064Z,39.38
2022-07-25T19:00:14.559Z,39.56
2022-07-25T19:01:18.579Z,39.67
2022-07-25T19:02:20.870Z,40.06
2022-07-25T19:03:23.201Z,40.02
2022-07-25T19:04:25.790Z,39.79
2022-07-25T19:05:28.278Z,40.08
2022-07-25T19:06:30.709Z,40.30
2022-07-25T19:07:34.802Z,40.31
2022-07-25T19:08:37.266Z,40.13
2022-07-25T19:09:41.375Z,40.09
2022-07-25T19:10:43.620Z,40.37
2022-07-25T19:11:47.773Z,40.12
2022-07-25T19:12:52.634Z,40.29
2022-07-25T19:13:54.901Z,40.52
2022-07-25T19:14:57.387Z,40.20
2022-07-25T19:16:03.054Z,40.36
2022-07-25T19:17:17.887Z,40.65
2022-07-25T19:26:43.869Z,41.63
2022-07-25T19:27:51.254Z,41.66
2022-07-25T19:37:20.240Z,41.80
2022-07-25T19:46:54.305Z,42.38
2022-07-25T19:56:26.247Z,43.20
2022-07-25T20:06:02.394Z,44.31
2022-07-25T20:15:36.329Z,45.16
2022-07-25T20:25:10.372Z,45.77
2022-07-25T20:34:42.901Z,46.45
2022-07-25T20:44:16.145Z,46.61
2022-07-25T20:53:51.567Z,47.01
2022-07-25T21:03:25.003Z,47.46
2022-07-25T21:13:00.736Z,47.79
2022-07-25T21:22:34.934Z,48.33
2022-07-25T21:32:07.164Z,48.93
2022-07-25T21:41:39.975Z,49.39
2022-07-25T21:51:19.007Z,50.06
2022-07-25T22:00:45.623Z,50.55
2022-07-25T22:10:19.250Z,50.94
2022-07-25T22:19:55.837Z,51.30
2022-07-25T22:29:28.048Z,51.99
2022-07-25T22:39:04.484Z,52.48
2022-07-25T22:48:37.734Z,53.01
2022-07-25T22:58:11.643Z,53.51
2022-07-25T23:07:44.360Z,53.92
2022-07-25T23:17:18.511Z,54.46
2022-07-25T23:26:51.972Z,55.03
2022-07-25T23:36:26.083Z,55.65
2022-07-25T23:45:58.703Z,56.78
2022-07-25T23:55:34.348Z,57.18
